createdAt,value
2018-08-03T00:00:30.613Z,23.80
2018-08-03T00:03:01.215Z,23.80
2018-08-03T00:05:31.835Z,23.80
2018-08-03T00:08:02.422Z,23.80
2018-08-03T00:10:39.390Z,23.80
2018-08-03T00:13:10.003Z,23.70
2018-08-03T00:15:40.518Z,23.70
2018-08-03T00:18:11.241Z,23.70
2018-08-03T00:20:41.710Z,23.70
2018-08-03T00:23:12.187Z,23.70
2018-08-03T00:25:42.567Z,23.70
2018-08-03T00:30:42.674Z,23.60
2018-08-03T00:35:43.321Z,23.70
2018-08-03T00:40:43.779Z,23.70
2018-08-03T00:43:14.615Z,23.70
2018-08-03T00:45:45.096Z,23.60
2018-08-03T00:50:45.533Z,23.50
2018-08-03T00:53:16.303Z,23.40
2018-08-03T00:55:46.918Z,23.40
2018-08-03T00:58:17.396Z,23.40
2018-08-03T01:00:47.888Z,23.30
2018-08-03T01:05:48.561Z,23.10
2018-08-03T01:08:19.100Z,23.10
2018-08-03T01:10:49.832Z,23.00
2018-08-03T01:13:20.262Z,23.00
2018-08-03T01:15:50.726Z,22.90
2018-08-03T01:18:21.305Z,22.80
2018-08-03T01:20:51.786Z,22.90
2018-08-03T01:23:22.222Z,22.80
2018-08-03T01:28:23.430Z,22.80
2018-08-03T01:30:53.959Z,22.80
2018-08-03T01:35:54.249Z,22.80
2018-08-03T01:43:24.655Z,22.70
2018-08-03T01:45:55.071Z,22.60
2018-08-03T01:48:25.561Z,22.60
2018-08-03T01:53:25.972Z,22.50
2018-08-03T01:55:56.494Z,22.50
2018-08-03T01:58:27.069Z,22.50
2018-08-03T02:00:57.559Z,22.40
2018-08-03T02:03:28.125Z,22.40
2018-08-03T02:05:58.444Z,22.40
2018-08-03T02:08:28.890Z,22.30
2018-08-03T02:10:59.403Z,22.30
2018-08-03T02:13:30.172Z,22.30
2018-08-03T02:16:00.722Z,22.30
2018-08-03T02:18:31.110Z,22.30
2018-08-03T02:21:01.476Z,22.30
2018-08-03T02:23:31.885Z,22.20
2018-08-03T02:26:02.334Z,22.20
2018-08-03T02:28:32.698Z,22.30
2018-08-03T02:31:03.930Z,22.20
2018-08-03T02:33:34.579Z,22.10
2018-08-03T02:36:04.985Z,22.20
2018-08-03T02:38:35.515Z,22.10
2018-08-03T02:41:05.951Z,22.00
2018-08-03T02:43:36.552Z,21.90
2018-08-03T02:46:07.246Z,22.00
2018-08-03T02:48:38.014Z,22.00
2018-08-03T02:51:08.732Z,22.00
2018-08-03T02:53:39.107Z,22.10
2018-08-03T02:58:42.003Z,22.10
2018-08-03T03:01:12.599Z,22.10
2018-08-03T03:03:43.333Z,22.10
2018-08-03T03:06:14.907Z,22.00
2018-08-03T03:08:45.522Z,22.00
2018-08-03T03:11:16.150Z,22.00
2018-08-03T03:13:46.598Z,22.10
2018-08-03T03:16:17.222Z,22.10
2018-08-03T03:18:48.042Z,22.10
2018-08-03T03:21:18.916Z,22.10
2018-08-03T03:26:19.539Z,22.10
2018-08-03T03:28:50.123Z,22.10
2018-08-03T03:31:20.975Z,22.20
2018-08-03T03:36:21.345Z,22.30
2018-08-03T03:38:51.867Z,22.30
2018-08-03T03:41:22.560Z,22.30
2018-08-03T03:43:53.023Z,22.40
2018-08-03T03:46:23.526Z,22.40
2018-08-03T03:48:54.848Z,22.40
2018-08-03T03:51:25.496Z,22.50
2018-08-03T03:53:56.057Z,22.50
2018-08-03T03:56:26.444Z,22.60
2018-08-03T03:58:56.943Z,22.70
2018-08-03T04:03:57.439Z,22.80
2018-08-03T04:06:27.936Z,22.90
2018-08-03T04:11:29.325Z,23.00
2018-08-03T04:13:59.820Z,23.00
2018-08-03T04:16:30.292Z,23.10
2018-08-03T04:19:00.768Z,23.10
2018-08-03T04:21:31.508Z,23.10
2018-08-03T04:24:02.182Z,23.20
2018-08-03T04:26:32.806Z,23.30
2018-08-03T04:29:03.240Z,23.40
2018-08-03T04:31:33.981Z,23.40
2018-08-03T04:34:04.505Z,23.50
2018-08-03T04:36:34.895Z,23.60
2018-08-03T04:41:36.194Z,23.70
2018-08-03T04:44:06.555Z,23.80
2018-08-03T04:46:36.997Z,23.80
2018-08-03T04:49:07.991Z,23.90
2018-08-03T04:51:38.598Z,24.00
2018-08-03T04:54:09.415Z,24.10
2018-08-03T04:56:39.833Z,24.20
2018-08-03T04:59:10.352Z,24.40
2018-08-03T05:01:41.023Z,24.40
2018-08-03T05:04:11.468Z,24.50
2018-08-03T05:06:41.902Z,24.70
2018-08-03T05:09:12.279Z,24.80
2018-08-03T05:16:42.382Z,25.10
2018-08-03T05:19:12.835Z,25.20
2018-08-03T05:21:43.274Z,25.30
2018-08-03T05:24:13.912Z,25.40
2018-08-03T05:29:14.182Z,25.50
2018-08-03T05:31:44.850Z,25.50
2018-08-03T05:34:15.541Z,25.50
2018-08-03T05:36:45.877Z,25.60
2018-08-03T05:39:16.375Z,25.70
2018-08-03T05:41:46.915Z,25.80
2018-08-03T05:44:17.378Z,25.90
2018-08-03T05:46:47.851Z,26.00
2018-08-03T05:51:48.160Z,26.20
2018-08-03T05:54:18.827Z,26.20
2018-08-03T05:56:49.388Z,26.30
2018-08-03T05:59:20.069Z,26.40
2018-08-03T06:01:50.563Z,26.50
2018-08-03T06:04:21.193Z,26.80
2018-08-03T06:06:51.825Z,26.80
2018-08-03T06:09:22.221Z,26.80
2018-08-03T06:14:22.286Z,26.90
2018-08-03T06:19:22.673Z,27.10
2018-08-03T06:21:53.588Z,27.20
2018-08-03T06:24:24.354Z,27.30
2018-08-03T06:26:54.743Z,27.50
2018-08-03T06:29:25.320Z,27.50
2018-08-03T06:31:55.790Z,27.60
2018-08-03T06:34:26.409Z,27.70
2018-08-03T06:36:56.792Z,28.10
2018-08-03T06:39:27.278Z,28.40
2018-08-03T06:41:57.796Z,28.70
2018-08-03T06:44:28.562Z,28.90
2018-08-03T06:46:59.161Z,28.90
2018-08-03T06:49:29.758Z,29.00
2018-08-03T06:52:00.281Z,29.20
2018-08-03T06:54:30.896Z,29.30
2018-08-03T06:57:01.613Z,29.50
2018-08-03T06:59:32.314Z,29.60
2018-08-03T07:02:02.826Z,29.50
2018-08-03T07:04:33.325Z,29.50
2018-08-03T07:07:04.290Z,29.80
2018-08-03T07:09:34.885Z,30.20
2018-08-03T07:12:05.304Z,30.50
2018-08-03T07:17:05.508Z,31.00
2018-08-03T07:19:36.085Z,31.20
2018-08-03T07:22:07.062Z,31.50
2018-08-03T07:27:07.793Z,31.70
2018-08-03T07:29:38.663Z,31.50
2018-08-03T07:32:09.200Z,31.20
2018-08-03T07:34:39.955Z,31.10
2018-08-03T07:37:10.825Z,31.30
2018-08-03T07:39:41.377Z,31.50
2018-08-03T07:42:11.682Z,31.70
2018-08-03T07:44:42.324Z,31.90
2018-08-03T07:47:12.862Z,32.20
2018-08-03T07:49:43.309Z,32.30
2018-08-03T07:52:13.829Z,32.50
2018-08-03T07:57:13.969Z,32.70
2018-08-03T07:59:44.646Z,32.10
2018-08-03T08:02:15.319Z,31.80
2018-08-03T08:04:45.957Z,31.90
2018-08-03T08:07:16.789Z,32.00
2018-08-03T08:09:47.470Z,32.00
2018-08-03T08:12:17.824Z,32.10
2018-08-03T08:14:48.727Z,32.30
2018-08-03T08:17:19.185Z,32.10
2018-08-03T08:22:19.463Z,31.70
2018-08-03T08:24:49.849Z,31.60
2018-08-03T08:27:20.504Z,31.50
2018-08-03T08:29:50.931Z,31.50
2018-08-03T08:32:21.369Z,31.20
2018-08-03T08:34:54.507Z,31.00
2018-08-03T08:39:57.048Z,30.70
2018-08-03T08:42:27.556Z,30.60
2018-08-03T08:44:58.089Z,30.60
2018-08-03T08:47:29.074Z,30.70
2018-08-03T08:50:00.139Z,30.80
2018-08-03T08:52:30.593Z,30.80
2018-08-03T08:57:30.954Z,30.90
2018-08-03T09:00:01.906Z,31.00
2018-08-03T09:02:32.399Z,31.00
2018-08-03T09:05:02.765Z,31.10
2018-08-03T09:07:33.634Z,31.30
2018-08-03T09:10:04.424Z,31.30
2018-08-03T09:12:34.934Z,31.10
2018-08-03T09:15:05.780Z,31.00
2018-08-03T09:17:36.470Z,31.00
2018-08-03T09:20:07.143Z,31.10
2018-08-03T09:22:37.821Z,31.30
2018-08-03T09:25:08.252Z,31.50
2018-08-03T09:27:38.735Z,31.50
2018-08-03T09:30:10.626Z,31.60
2018-08-03T09:32:41.051Z,31.70
2018-08-03T09:35:12.386Z,31.60
2018-08-03T09:37:43.104Z,31.50
2018-08-03T09:45:13.360Z,32.60
2018-08-03T09:47:43.901Z,32.70
2018-08-03T09:50:14.675Z,32.90
2018-08-03T09:52:45.133Z,33.10
2018-08-03T09:55:15.659Z,32.90
2018-08-03T09:57:46.019Z,32.90
2018-08-03T10:02:47.564Z,33.10
2018-08-03T10:05:18.226Z,33.30
2018-08-03T10:07:48.576Z,33.10
2018-08-03T10:10:19.196Z,33.20
2018-08-03T10:12:50.725Z,33.30
2018-08-03T10:15:21.348Z,33.40
2018-08-03T10:17:51.935Z,33.20
2018-08-03T10:20:22.566Z,33.10
2018-08-03T10:22:53.024Z,33.10
2018-08-03T10:25:23.459Z,33.30
2018-08-03T10:27:53.919Z,33.10
2018-08-03T10:30:24.425Z,33.10
2018-08-03T10:32:55.161Z,33.10
2018-08-03T10:35:25.872Z,33.60
2018-08-03T10:37:56.409Z,33.60
2018-08-03T10:40:27.105Z,33.70
2018-08-03T10:42:57.601Z,33.70
2018-08-03T10:47:58.411Z,33.90
2018-08-03T10:50:29.046Z,34.20
2018-08-03T10:52:59.657Z,34.50
2018-08-03T10:55:30.024Z,34.70
2018-08-03T11:00:32.386Z,35.00
2018-08-03T11:05:32.637Z,35.20
2018-08-03T11:08:03.330Z,35.30
2018-08-03T11:10:33.938Z,35.10
2018-08-03T11:13:04.395Z,34.90
2018-08-03T11:15:35.050Z,34.40
2018-08-03T11:18:05.605Z,34.40
2018-08-03T11:20:35.977Z,34.70
2018-08-03T11:23:06.572Z,35.00
2018-08-03T11:25:37.024Z,35.10
2018-08-03T11:28:07.782Z,35.20
2018-08-03T11:30:38.384Z,35.30
2018-08-03T11:33:08.882Z,35.50
2018-08-03T11:35:39.367Z,35.60
2018-08-03T11:38:09.897Z,35.70
2018-08-03T11:40:40.455Z,35.20
2018-08-03T11:43:11.029Z,35.30
2018-08-03T11:45:41.841Z,35.30
2018-08-03T11:48:12.667Z,35.20
2018-08-03T11:50:43.809Z,35.10
2018-08-03T11:53:14.390Z,34.90
2018-08-03T11:55:44.822Z,34.60
2018-08-03T11:58:15.451Z,34.50
2018-08-03T12:00:46.987Z,34.80
2018-08-03T12:03:17.558Z,35.10
2018-08-03T12:05:48.415Z,35.30
2018-08-03T12:08:18.840Z,35.50
2018-08-03T12:10:49.264Z,35.60
2018-08-03T12:13:19.745Z,35.50
2018-08-03T12:15:50.137Z,35.50
2018-08-03T12:18:20.611Z,35.40
2018-08-03T12:20:51.039Z,35.40
2018-08-03T12:23:21.536Z,35.00
2018-08-03T12:25:52.153Z,34.70
2018-08-03T12:30:52.599Z,33.80
2018-08-03T12:33:23.147Z,33.60
2018-08-03T12:35:53.793Z,33.50
2018-08-03T12:38:24.280Z,33.30
2018-08-03T12:43:27.463Z,33.60
2018-08-03T12:45:59.645Z,33.50
2018-08-03T12:48:33.116Z,33.10
2018-08-03T12:51:06.678Z,32.70
2018-08-03T12:53:47.372Z,32.70
2018-08-03T12:56:20.700Z,32.50
2018-08-03T12:58:56.641Z,32.10
2018-08-03T13:01:28.475Z,32.10
2018-08-03T13:03:59.049Z,32.10
2018-08-03T13:06:29.534Z,31.90
2018-08-03T13:09:00.895Z,31.80
2018-08-03T13:14:14.830Z,31.70
2018-08-03T13:16:49.045Z,31.70
2018-08-03T13:21:56.395Z,31.30
2018-08-03T13:24:29.284Z,31.40
2018-08-03T13:27:06.059Z,31.30
2018-08-03T13:29:38.627Z,31.30
2018-08-03T13:32:12.371Z,31.30
2018-08-03T13:34:42.954Z,31.30
2018-08-03T13:39:48.808Z,31.40
2018-08-03T13:42:23.187Z,31.70
2018-08-03T13:44:54.770Z,31.70
2018-08-03T13:47:38.796Z,31.60
2018-08-03T13:52:41.602Z,31.50
2018-08-03T13:55:12.149Z,31.60
2018-08-03T13:57:42.730Z,31.50
2018-08-03T14:00:27.989Z,31.40
2018-08-03T14:02:58.915Z,31.30
2018-08-03T14:05:30.137Z,31.30
2018-08-03T14:08:16.674Z,31.30
2018-08-03T14:10:51.767Z,31.00
2018-08-03T14:13:23.486Z,30.80
2018-08-03T14:16:01.467Z,30.70
2018-08-03T14:18:36.917Z,30.50
2018-08-03T14:21:12.984Z,30.20
2018-08-03T14:23:49.861Z,30.20
2018-08-03T14:26:22.568Z,30.10
2018-08-03T14:29:07.689Z,30.10
2018-08-03T14:31:44.410Z,30.00
2018-08-03T14:34:15.188Z,29.90
2018-08-03T14:36:45.730Z,29.90
2018-08-03T14:39:20.126Z,29.70
2018-08-03T14:42:08.265Z,29.60
2018-08-03T14:44:39.017Z,29.60
2018-08-03T14:47:32.039Z,29.70
2018-08-03T14:50:09.701Z,29.60
2018-08-03T14:52:49.000Z,29.50
2018-08-03T14:55:24.962Z,29.50
2018-08-03T14:58:12.983Z,29.60
2018-08-03T15:00:44.865Z,29.60
2018-08-03T15:03:15.455Z,29.70
2018-08-03T15:05:46.189Z,29.80
2018-08-03T15:08:16.848Z,29.80
2018-08-03T15:10:47.829Z,29.80
2018-08-03T15:13:18.256Z,29.70
2018-08-03T15:15:48.885Z,29.80
2018-08-03T15:18:19.580Z,29.70
2018-08-03T15:20:50.252Z,29.60
2018-08-03T15:23:20.752Z,29.50
2018-08-03T15:25:51.241Z,29.40
2018-08-03T15:28:21.833Z,29.50
2018-08-03T15:30:52.675Z,29.40
2018-08-03T15:33:23.275Z,29.50
2018-08-03T15:35:53.999Z,29.60
2018-08-03T15:38:24.689Z,29.60
2018-08-03T15:40:55.455Z,29.60
2018-08-03T15:43:26.442Z,29.70
2018-08-03T15:45:57.000Z,29.80
2018-08-03T15:48:27.520Z,29.80
2018-08-03T15:50:58.075Z,30.00
2018-08-03T15:53:28.712Z,30.10
2018-08-03T15:55:59.305Z,30.20
2018-08-03T15:58:29.898Z,30.40
2018-08-03T16:01:00.851Z,30.60
2018-08-03T16:03:31.565Z,30.60
2018-08-03T16:06:02.437Z,30.60
2018-08-03T16:08:32.940Z,30.60
2018-08-03T16:11:03.472Z,30.50
2018-08-03T16:13:34.726Z,30.40
2018-08-03T16:16:05.381Z,30.50
2018-08-03T16:18:35.991Z,30.50
2018-08-03T16:21:06.567Z,30.20
2018-08-03T16:23:36.939Z,30.20
2018-08-03T16:26:07.805Z,30.20
2018-08-03T16:28:38.402Z,30.10
2018-08-03T16:31:09.220Z,29.90
2018-08-03T16:33:39.953Z,29.90
2018-08-03T16:36:10.865Z,29.90
2018-08-03T16:38:41.520Z,29.90
2018-08-03T16:41:12.096Z,29.80
2018-08-03T16:43:43.204Z,29.70
2018-08-03T16:46:13.759Z,29.60
2018-08-03T16:48:44.404Z,29.60
2018-08-03T16:51:15.307Z,29.40
2018-08-03T16:53:45.942Z,29.40
2018-08-03T16:56:16.612Z,29.40
2018-08-03T16:58:47.585Z,29.40
2018-08-03T17:03:48.400Z,29.20
2018-08-03T17:06:19.241Z,29.10
2018-08-03T17:08:49.738Z,29.00
2018-08-03T17:11:20.371Z,29.00
2018-08-03T17:13:51.336Z,28.90
2018-08-03T17:16:22.325Z,28.80
2018-08-03T17:21:22.599Z,28.60
2018-08-03T17:23:53.244Z,28.50
2018-08-03T17:26:23.887Z,28.50
2018-08-03T17:28:54.472Z,28.40
2018-08-03T17:31:25.420Z,28.40
2018-08-03T17:33:55.963Z,28.40
2018-08-03T17:36:26.612Z,28.40
2018-08-03T17:38:57.396Z,28.40
2018-08-03T17:41:28.075Z,28.40
2018-08-03T17:43:58.489Z,28.30
2018-08-03T17:46:29.245Z,28.30
2018-08-03T17:48:59.833Z,28.30
2018-08-03T17:51:30.475Z,28.10
2018-08-03T17:54:01.424Z,28.10
2018-08-03T17:56:32.014Z,28.10
2018-08-03T17:59:02.830Z,28.10
2018-08-03T18:01:33.657Z,28.10
2018-08-03T18:04:04.413Z,28.00
2018-08-03T18:06:35.439Z,27.90
2018-08-03T18:09:07.844Z,27.90
2018-08-03T18:11:38.712Z,27.90
2018-08-03T18:14:09.432Z,27.80
2018-08-03T18:16:40.321Z,27.80
2018-08-03T18:19:11.120Z,27.70
2018-08-03T18:21:41.640Z,27.60
2018-08-03T18:24:12.206Z,27.60
2018-08-03T18:26:42.854Z,27.60
2018-08-03T18:29:13.335Z,27.60
2018-08-03T18:31:43.957Z,27.50
2018-08-03T18:34:14.603Z,27.50
2018-08-03T18:36:45.213Z,27.50
2018-08-03T18:39:22.143Z,27.50
2018-08-03T18:41:52.834Z,27.50
2018-08-03T18:44:23.732Z,27.40
2018-08-03T18:46:54.304Z,27.40
2018-08-03T18:49:25.052Z,27.30
2018-08-03T18:54:25.400Z,27.30
2018-08-03T18:56:56.141Z,27.30
2018-08-03T18:59:26.673Z,27.30
2018-08-03T19:01:59.402Z,27.30
2018-08-03T19:04:30.764Z,27.30
2018-08-03T19:07:10.854Z,27.20
2018-08-03T19:09:46.908Z,27.20
2018-08-03T19:12:17.523Z,27.10
2018-08-03T19:14:49.292Z,27.10
2018-08-03T19:17:27.409Z,27.10
2018-08-03T19:20:00.317Z,27.10
2018-08-03T19:22:30.688Z,27.10
2018-08-03T19:25:05.479Z,27.00
2018-08-03T19:27:37.172Z,27.10
2018-08-03T19:30:08.105Z,27.10
2018-08-03T19:32:38.634Z,27.00
2018-08-03T19:35:09.126Z,27.00
2018-08-03T19:40:09.343Z,26.80
2018-08-03T19:42:40.261Z,26.80
2018-08-03T19:45:11.022Z,26.80
2018-08-03T19:47:41.594Z,26.80
2018-08-03T19:50:12.483Z,26.80
2018-08-03T19:52:43.067Z,26.80
2018-08-03T19:55:13.823Z,26.80
2018-08-03T19:57:44.291Z,26.80
2018-08-03T20:00:14.777Z,26.80
2018-08-03T20:02:45.416Z,26.80
2018-08-03T20:05:16.212Z,26.80
2018-08-03T20:10:16.496Z,26.70
2018-08-03T20:12:47.209Z,26.70
2018-08-03T20:15:18.090Z,26.60
2018-08-03T20:17:48.859Z,26.60
2018-08-03T20:20:19.337Z,26.60
2018-08-03T20:22:50.206Z,26.50
2018-08-03T20:25:20.797Z,26.40
2018-08-03T20:27:51.426Z,26.40
2018-08-03T20:30:22.165Z,26.40
2018-08-03T20:32:52.788Z,26.40
2018-08-03T20:35:23.515Z,26.40
2018-08-03T20:37:54.004Z,26.30
2018-08-03T20:40:24.602Z,26.40
2018-08-03T20:42:55.277Z,26.40
2018-08-03T20:45:25.641Z,26.30
2018-08-03T20:47:56.103Z,26.30
2018-08-03T20:50:26.785Z,26.30
2018-08-03T20:52:57.907Z,26.30
2018-08-03T20:55:28.391Z,26.20
2018-08-03T20:57:58.755Z,26.20
2018-08-03T21:00:29.358Z,26.20
2018-08-03T21:02:59.828Z,26.10
2018-08-03T21:05:30.304Z,26.10
2018-08-03T21:08:00.996Z,26.00
2018-08-03T21:10:31.529Z,25.90
2018-08-03T21:13:02.107Z,25.90
2018-08-03T21:15:32.938Z,25.80
2018-08-03T21:18:03.590Z,25.80
2018-08-03T21:20:34.246Z,25.80
2018-08-03T21:23:04.806Z,25.70
2018-08-03T21:25:35.624Z,25.60
2018-08-03T21:28:06.222Z,25.50
2018-08-03T21:30:36.824Z,25.50
2018-08-03T21:33:07.739Z,25.50
2018-08-03T21:35:38.173Z,25.40
2018-08-03T21:38:08.652Z,25.40
2018-08-03T21:40:39.766Z,25.40
2018-08-03T21:43:10.373Z,25.30
2018-08-03T21:45:40.900Z,25.30
2018-08-03T21:48:11.608Z,25.30
2018-08-03T21:50:42.097Z,25.20
2018-08-03T21:53:12.764Z,25.30
2018-08-03T21:55:43.443Z,25.30
2018-08-03T21:58:14.089Z,25.20
2018-08-03T22:00:44.624Z,25.30
2018-08-03T22:03:15.237Z,25.30
2018-08-03T22:05:46.339Z,25.30
2018-08-03T22:08:17.128Z,25.30
2018-08-03T22:10:47.875Z,25.30
2018-08-03T22:13:18.525Z,25.20
2018-08-03T22:15:49.121Z,25.20
2018-08-03T22:18:19.671Z,25.20
2018-08-03T22:20:50.355Z,25.10
2018-08-03T22:23:20.873Z,25.10
2018-08-03T22:25:51.349Z,25.00
2018-08-03T22:28:21.960Z,25.00
2018-08-03T22:30:52.604Z,25.00
2018-08-03T22:33:23.510Z,25.00
2018-08-03T22:35:54.514Z,25.00
2018-08-03T22:38:24.915Z,25.00
2018-08-03T22:43:25.465Z,24.90
2018-08-03T22:45:55.987Z,24.90
2018-08-03T22:48:27.047Z,24.90
2018-08-03T22:53:27.509Z,24.70
2018-08-03T22:55:58.123Z,24.70
2018-08-03T22:58:28.941Z,24.70
2018-08-03T23:00:59.621Z,24.70
2018-08-03T23:03:30.307Z,24.60
2018-08-03T23:06:01.354Z,24.60
2018-08-03T23:08:31.878Z,24.60
2018-08-03T23:11:02.525Z,24.50
2018-08-03T23:13:33.039Z,24.50
2018-08-03T23:16:03.721Z,24.40
2018-08-03T23:18:34.258Z,24.40
2018-08-03T23:21:05.139Z,24.40
2018-08-03T23:28:35.468Z,24.30
2018-08-03T23:31:05.934Z,24.20
2018-08-03T23:36:06.580Z,24.20
2018-08-03T23:46:07.185Z,24.00
2018-08-03T23:48:37.647Z,24.00
2018-08-03T23:51:08.258Z,24.00
2018-08-03T23:53:38.699Z,24.00
2018-08-03T23:56:09.502Z,24.00
2018-08-03T23:58:40.199Z,24.00
